• Join FlightAware (Why Join?)
  • Login
  • US Flag 
Gobble Gobble! 
11:18PM EST


 

Airport Tracker/Info


-or-


 

Live Flight TrackerFlight Track Log ✈ USC105 ✈ 22-Apr-2013 ✈ KLCK - KBKL

Flight Track Log - Related Links

Times and Time Zones

All times are in EDT time to prevent confusion due to time zone crossing. See the USC105 flight status page for this flight to view local times or setup timezone preferences in your user account.

Time Position Orientation Groundspeed Altitude Reporting Facility
EDT Latitude Longitude Course Direction KTS MPH feet Rate Location/Type
10:05PM 39.8217 -82.9222 40° Northeast 106 122 900  Level Indianapolis Center
10:06PM 39.8397 -82.9025 40° Northeast 123 142 1,800 1,200 Climbing Indianapolis Center
10:07PM 39.8672 -82.8744 38° Northeast 131 151 3,000 1,140 Climbing Indianapolis Center
10:08PM 39.8819 -82.8339 65° Northeast 115 132 4,200 1,080 Climbing Indianapolis Center
10:09PM 39.8994 -82.7983 57° Northeast 119 137 5,200 1,080 Climbing Indianapolis Center
10:10PM 39.9183 -82.7619 56° Northeast 124 143 6,400 840 Climbing Indianapolis Center
10:11PM 39.9556 -82.7361 28° Northeast 160 184 7,000 240 Climbing Indianapolis Center
10:12PM 39.9994 -82.7058 28° Northeast 191 220 6,900 -60 Descending Indianapolis Center
10:13PM 40.0450 -82.6747 28° Northeast 196 226 6,900  Level Indianapolis Center
10:14PM 40.0975 -82.6458 23° Northeast 197 227 6,900  Level Indianapolis Center
10:15PM 40.1433 -82.6181 25° Northeast 198 228 6,900  Level Indianapolis Center
10:16PM 40.1933 -82.5856 26° Northeast 201 231 6,900  Level Indianapolis Center
10:17PM 40.2519 -82.5536 23° Northeast 202 232 6,900  Level Indianapolis Center
10:18PM 40.3006 -82.5153 31° Northeast 206 237 6,900  Level Indianapolis Center
10:19PM 40.3464 -82.4847 27° Northeast 202 232 6,900  Level Indianapolis Center
10:20PM 40.4053 -82.4461 27° Northeast 200 230 6,900  Level Indianapolis Center
10:21PM 40.4561 -82.4089 29° Northeast 205 236 6,900  Level Indianapolis Center
10:22PM 40.5069 -82.3753 27° Northeast 204 235 6,900  Level Indianapolis Center
10:23PM 40.5592 -82.3417 26° Northeast 206 237 6,900  Level Indianapolis Center
10:24PM 40.6114 -82.3072 27° Northeast 208 239 6,900  Level Indianapolis Center
10:25PM 40.6622 -82.2714 28° Northeast 207 238 6,900 60 Level Indianapolis Center
10:25PM 40.6864 -82.2589 21° North 207 238 7,000 60 Climbing Cleveland Center
10:26PM 40.7139 -82.2378 30° Northeast 207 238 7,000  Level Cleveland Center
10:27PM 40.7644 -82.2033 27° Northeast 208 239 7,000  Level Cleveland Center
10:28PM 40.8150 -82.1717 25° Northeast 209 241 7,000  Level Cleveland Center
10:29PM 40.8697 -82.1317 29° Northeast 209 241 7,000  Level Cleveland Center
10:30PM 40.9200 -82.0972 27° Northeast 207 238 7,000  Level Cleveland Center
10:31PM 40.9728 -82.0628 26° Northeast 207 238 7,000  Level Cleveland Center
10:32PM 41.0189 -82.0306 28° Northeast 206 237 7,000 -120 Level Cleveland Center
10:33PM 41.0714 -81.9961 26° Northeast 201 231 6,800 -480 Descending Cleveland Center
10:34PM 41.1242 -81.9558 30° Northeast 213 245 6,100 -600 Descending Cleveland Center
10:35PM 41.1808 -81.9211 25° Northeast 207 238 5,600 -600 Descending Cleveland Center
10:36PM 41.2292 -81.8864 28° Northeast 203 234 5,000 -600 Descending Cleveland Center
10:37PM 41.2836 -81.8569 22° Northeast 202 232 4,500 -540 Descending Cleveland Center
10:38PM 41.3319 -81.8303 23° Northeast 201 231 4,000 -600 Descending Cleveland Center
10:39PM 41.3822 -81.8036 22° Northeast 193 222 3,400 -600 Descending Cleveland Center
10:40PM 41.4325 -81.7794 20° North 194 223 2,800 -600 Descending Cleveland Center
10:41PM 41.4828 -81.7556 20° North 178 205 2,300 -900 Descending Cleveland Center
10:42PM 41.5042 -81.7117 57° Northeast 127 146 1,000 -1,320 Descending Cleveland Center
10:44PM 41.5175 -81.6833 27° Northeast  Level Estimated
10:51PM 41.5175 -81.6833 27° Northeast  Level Estimated
10:52PM 41.5175 -81.6833 27° Northeast  Level Estimated
10:53PM 41.5175 -81.6833 27° Northeast  Level Estimated